»·PEaware :: N5157Z KBZN-KBOI

N5157Z :: KBZN-KBOI

FLIGHT INFORMATION

Flight Status: Arrived
Operator: Privately registered:
United States
More flights under this callsign
Pilot: Matt L. (27725)
Aircraft: BEECH AIRCRAFT BARON
(BE58)
More flights by this aircraft type
Origin: KBZN Gallatin
United States
Destination: KBOI Boise Air Terminal/Gowen
United States
More flights between these airports :: More routes between these airports
Route: +HIA5 HIA V21 DLN V121 DNJ
File this flight plan on PilotEdge
Remarks:
Altitude:
(Current/Filed)
12,000ft
Speed:
(Current/Filed)
180kts
Departed: 12-Apr-20 03:52 PM
Arrived: 12-Apr-20 05:47 PM
Distance/Time
Traveled:
254nm/1:54
Distance/Time
To Go:
Arrived

Flight Plot

Page will automatically refresh every two minutes.


Map Options




Map Legend


Flown Route
Filed Route
Departure Airport
Arrival Airport
Navaid (VOR, NDB)
Fix

Horizontal Profiles

Position Reports

Time Latitude Longitude Heading Altitude Ground
Speed
12-Apr-20 15:23 45.774189 -111.154105 44 4475ft 0kts
12-Apr-20 15:24 45.774189 -111.154105 44 4475ft 0kts
12-Apr-20 15:25 45.774189 -111.154105 44 4475ft 0kts
12-Apr-20 15:26 45.774189 -111.154105 44 4475ft 0kts
12-Apr-20 15:27 45.774189 -111.154105 44 4475ft 0kts
12-Apr-20 15:28 45.774189 -111.154105 44 4475ft 0kts
12-Apr-20 15:29 45.774189 -111.154105 44 4475ft 0kts
12-Apr-20 15:30 45.774189 -111.154105 44 4475ft 0kts
12-Apr-20 15:31 45.774189 -111.154105 44 4475ft 0kts
12-Apr-20 15:32 45.774189 -111.154105 44 4475ft 0kts
12-Apr-20 15:33 45.774189 -111.154105 44 4475ft 0kts
12-Apr-20 15:34 45.774189 -111.154105 44 4475ft 0kts
12-Apr-20 15:35 45.774189 -111.154105 44 4475ft 0kts
12-Apr-20 15:36 45.774189 -111.154105 44 4475ft 0kts
12-Apr-20 15:37 45.774189 -111.154105 44 4475ft 0kts
12-Apr-20 15:38 45.774189 -111.154105 44 4475ft 0kts
12-Apr-20 15:39 45.774189 -111.154105 44 4475ft 0kts
12-Apr-20 15:40 45.774189 -111.154105 44 4475ft 0kts
12-Apr-20 15:41 45.774189 -111.154105 44 4475ft 0kts
12-Apr-20 15:42 45.774189 -111.154105 44 4475ft 0kts
12-Apr-20 15:43 45.774189 -111.154105 44 4475ft 0kts
12-Apr-20 15:44 45.774189 -111.154105 44 4475ft 0kts
12-Apr-20 15:45 45.774189 -111.154105 44 4475ft 0kts
12-Apr-20 15:46 45.774189 -111.154105 44 4475ft 0kts
12-Apr-20 15:47 45.775545 -111.153476 353 4475ft 13kts
12-Apr-20 15:48 45.779405 -111.158567 314 4475ft 23kts
12-Apr-20 15:49 45.784415 -111.165545 316 4475ft 26kts
12-Apr-20 15:50 45.787003 -111.167889 46 4475ft 0kts
12-Apr-20 15:51 45.774536 -111.148108 140 4937ft 122kts
12-Apr-20 15:52 45.753417 -111.172153 267 6374ft 127kts
12-Apr-20 15:53 45.749950 -111.222634 267 7798ft 130kts
12-Apr-20 15:54 45.736593 -111.270378 242 9072ft 136kts
12-Apr-20 15:55 45.719861 -111.319886 243 10138ft 141kts
12-Apr-20 15:56 45.699075 -111.369312 242 11050ft 146kts
12-Apr-20 15:57 45.679284 -111.421613 247 11832ft 151kts
12-Apr-20 15:58 45.666102 -111.484273 270 12049ft 173kts
12-Apr-20 15:59 45.678790 -111.552122 298 12017ft 178kts
12-Apr-20 16:00 45.699208 -111.616500 298 12178ft 174kts
12-Apr-20 16:01 45.721052 -111.682561 300 11931ft 183kts
12-Apr-20 16:02 45.743325 -111.747550 297 11966ft 181kts
12-Apr-20 16:03 45.761599 -111.815006 293 12014ft 185kts
12-Apr-20 16:04 45.781156 -111.884531 296 11987ft 190kts
12-Apr-20 16:05 45.801370 -111.954897 295 11957ft 191kts
12-Apr-20 16:06 45.821279 -112.025389 295 11951ft 191kts
12-Apr-20 16:07 45.841084 -112.095811 295 11945ft 190kts
12-Apr-20 16:08 45.841233 -112.168230 232 11938ft 201kts
12-Apr-20 16:09 45.793864 -112.210769 206 11965ft 202kts
12-Apr-20 16:10 45.742452 -112.243679 204 11950ft 202kts
12-Apr-20 16:11 45.691048 -112.275604 204 11953ft 200kts
12-Apr-20 16:12 45.639891 -112.307239 204 11958ft 201kts
12-Apr-20 16:13 45.588284 -112.339084 204 11956ft 203kts
12-Apr-20 16:14 45.536284 -112.371107 204 11942ft 205kts
12-Apr-20 16:15 45.483723 -112.403407 204 11924ft 206kts
12-Apr-20 16:16 45.431115 -112.435671 204 11914ft 206kts
12-Apr-20 16:17 45.378477 -112.467890 204 11916ft 206kts
12-Apr-20 16:18 45.325896 -112.500006 204 11917ft 206kts
12-Apr-20 16:19 45.273159 -112.532172 205 11917ft 206kts
12-Apr-20 16:20 45.243497 -112.596785 257 11938ft 197kts
12-Apr-20 16:21 45.230948 -112.673112 261 11911ft 198kts
12-Apr-20 16:22 45.219891 -112.749821 261 11911ft 198kts
12-Apr-20 16:24 45.208918 -112.826579 261 11921ft 198kts
12-Apr-20 16:25 45.197992 -112.902754 261 11919ft 197kts
12-Apr-20 16:26 45.187039 -112.978693 260 11914ft 196kts
12-Apr-20 16:27 45.176125 -113.053952 259 11913ft 194kts
12-Apr-20 16:28 45.165153 -113.129126 259 11914ft 194kts
12-Apr-20 16:29 45.154200 -113.203922 259 11915ft 193kts
12-Apr-20 16:30 45.143217 -113.278565 259 11915ft 193kts
12-Apr-20 16:31 45.132202 -113.353074 259 11916ft 193kts
12-Apr-20 16:32 45.121107 -113.427759 259 11917ft 194kts
12-Apr-20 16:33 45.109954 -113.502485 259 11916ft 194kts
12-Apr-20 16:34 45.098755 -113.577159 259 11916ft 194kts
12-Apr-20 16:35 45.087539 -113.651597 259 11916ft 193kts
12-Apr-20 16:36 45.076235 -113.726252 259 11917ft 193kts
12-Apr-20 16:37 45.064885 -113.800867 259 11917ft 193kts
12-Apr-20 16:38 45.053525 -113.875212 259 11916ft 193kts
12-Apr-20 16:39 45.042099 -113.949633 259 11916ft 193kts
12-Apr-20 16:40 45.030644 -114.023911 259 11916ft 193kts
12-Apr-20 16:40 45.021299 -114.085986 261 11913ft 193kts
12-Apr-20 16:42 45.011442 -114.173580 262 11915ft 193kts
12-Apr-20 16:43 45.003118 -114.248371 262 11915ft 193kts
12-Apr-20 16:43 44.996124 -114.310923 262 11904ft 193kts
12-Apr-20 16:44 44.987673 -114.386066 262 11887ft 194kts
12-Apr-20 16:45 44.979155 -114.461353 262 11867ft 194kts
12-Apr-20 16:47 44.969154 -114.549169 262 11854ft 194kts
12-Apr-20 16:47 44.962002 -114.611588 262 11851ft 193kts
12-Apr-20 16:48 44.953314 -114.686970 261 11852ft 193kts
12-Apr-20 16:49 44.944631 -114.761875 261 11852ft 193kts
12-Apr-20 16:50 44.935894 -114.836813 261 11852ft 193kts
12-Apr-20 16:51 44.927123 -114.911601 261 11852ft 193kts
12-Apr-20 16:52 44.918273 -114.986575 261 11854ft 193kts
12-Apr-20 16:53 44.909504 -115.060388 262 11973ft 189kts
12-Apr-20 16:54 44.900719 -115.134020 262 11992ft 191kts
12-Apr-20 16:55 44.891815 -115.208188 263 11996ft 191kts
12-Apr-20 16:56 44.882896 -115.282181 263 11998ft 191kts
12-Apr-20 16:57 44.873920 -115.356140 263 11997ft 191kts
12-Apr-20 16:58 44.864893 -115.430086 263 11997ft 191kts
12-Apr-20 16:59 44.855802 -115.504150 263 11997ft 191kts
12-Apr-20 17:00 44.846688 -115.577979 263 11997ft 191kts
12-Apr-20 17:01 44.837512 -115.651913 262 11997ft 191kts
12-Apr-20 17:02 44.828275 -115.725928 262 11999ft 191kts
12-Apr-20 17:03 44.818952 -115.800221 262 11997ft 192kts
12-Apr-20 17:04 44.809631 -115.874089 262 11997ft 192kts
12-Apr-20 17:05 44.800234 -115.948154 262 11997ft 192kts
12-Apr-20 17:06 44.790791 -116.022183 262 11998ft 192kts
12-Apr-20 17:07 44.781289 -116.096273 262 11997ft 192kts
12-Apr-20 17:08 44.770530 -116.169700 246 11998ft 194kts
12-Apr-20 17:09 44.723002 -116.203605 188 11993ft 203kts
12-Apr-20 17:10 44.666592 -116.207415 182 11996ft 204kts
12-Apr-20 17:11 44.609760 -116.208387 183 11982ft 206kts
12-Apr-20 17:12 44.552446 -116.209251 184 12019ft 206kts
12-Apr-20 17:13 44.494828 -116.210079 184 12010ft 207kts
12-Apr-20 17:14 44.436974 -116.210885 184 12006ft 208kts
12-Apr-20 17:15 44.379149 -116.211689 184 12006ft 208kts
12-Apr-20 17:16 44.321157 -116.212494 184 12008ft 208kts
12-Apr-20 17:17 44.263175 -116.213296 184 12013ft 208kts
12-Apr-20 17:18 44.205152 -116.214098 184 12022ft 208kts
12-Apr-20 17:19 44.147139 -116.214899 184 12031ft 209kts
12-Apr-20 17:20 44.088870 -116.215701 184 12031ft 209kts
12-Apr-20 17:21 44.030684 -116.216504 184 12032ft 210kts
12-Apr-20 17:22 43.972308 -116.217306 184 12032ft 210kts
12-Apr-20 17:23 43.913843 -116.218107 184 12031ft 210kts
12-Apr-20 17:24 43.855162 -116.218906 184 12024ft 210kts
12-Apr-20 17:25 43.796809 -116.219701 184 12025ft 209kts
12-Apr-20 17:26 43.738649 -116.220493 184 12026ft 209kts
12-Apr-20 17:27 43.681078 -116.214150 142 11892ft 219kts
12-Apr-20 17:28 43.659990 -116.139691 104 11184ft 214kts
12-Apr-20 17:29 43.644497 -116.061686 102 10445ft 206kts
12-Apr-20 17:30 43.629117 -115.985590 103 9597ft 203kts
12-Apr-20 17:31 43.613765 -115.909643 101 8723ft 204kts
12-Apr-20 17:32 43.599217 -115.834243 102 8124ft 202kts
12-Apr-20 17:33 43.584303 -115.759847 107 8057ft 201kts
12-Apr-20 17:34 43.535669 -115.745760 203 7578ft 189kts
12-Apr-20 17:35 43.486860 -115.768279 203 7460ft 184kts
12-Apr-20 17:36 43.447728 -115.807403 238 7306ft 172kts
12-Apr-20 17:37 43.441219 -115.863353 301 6999ft 152kts
12-Apr-20 17:38 43.460516 -115.915443 295 7016ft 153kts
12-Apr-20 17:39 43.477978 -115.968516 300 6737ft 144kts
12-Apr-20 17:40 43.492777 -116.011391 295 6029ft 118kts
12-Apr-20 17:41 43.506074 -116.050536 297 5233ft 112kts
12-Apr-20 17:42 43.519518 -116.088667 298 4662ft 108kts
12-Apr-20 17:43 43.532288 -116.126430 299 4113ft 111kts
12-Apr-20 17:44 43.544989 -116.163566 303 3448ft 116kts
12-Apr-20 17:45 43.557561 -116.199987 297 2931ft 98kts
12-Apr-20 17:46 43.561486 -116.208557 27 2875ft 0kts
12-Apr-20 17:47 43.561943 -116.209167 295 2875ft 9kts
12-Apr-20 17:48 43.564472 -116.216585 292 2875ft 30kts
12-Apr-20 17:49 43.568116 -116.227283 294 2875ft 22kts
12-Apr-20 17:50 43.570369 -116.228836 274 2875ft 0kts
12-Apr-20 17:51 43.570369 -116.228836 274 2875ft 0kts
12-Apr-20 17:52 43.570369 -116.228836 274 2875ft 0kts

Navigation Log

Ident Type
Flight plan parsing failed, navigation log unavailable